Time;durP1;ratioP1;P1;durP2;ratioP2;P2;SDS_P1;SDS_P2;PMS_P1;PMS_P2;Temp;Humidity;BMP_temperature;BMP_pressure;BME280_temperature;BME280_humidity;BME280_pressure;Samples;Min_cycle;Max_cycle;Signal;HPM_P1;HPM_P2
2021/09/26 00:01:53;;;;;;;10.95;7.03;;;;;;;;;;5069319;28;20024;-58
2021/09/26 00:04:19;;;;;;;10.32;6.63;;;;;;;;;;5064856;28;20274;-58
2021/09/26 00:06:45;;;;;;;12.10;7.47;;;;;;;;;;5070036;28;20468;-59
2021/09/26 00:09:11;;;;;;;12.07;7.70;;;;;;;;;;5069133;28;20032;-59
2021/09/26 00:11:40;;;;;;;10.98;7.00;;;;;;;;;;5062786;28;20079;-59
2021/09/26 00:14:06;;;;;;;12.20;7.13;;;;;;;;;;5066900;28;20424;-59
2021/09/26 00:16:32;;;;;;;11.85;7.40;;;;;;;;;;5071267;28;20036;-58
2021/09/26 00:18:58;;;;;;;12.88;7.18;;;;;;;;;;5070913;28;20512;-59
2021/09/26 00:21:24;;;;;;;12.45;6.88;;;;;;;;;;5070466;28;20090;-57
2021/09/26 00:23:52;;;;;;;13.23;7.38;;;;;;;;;;5069762;28;20027;-59
2021/09/26 00:26:18;;;;;;;12.10;6.82;;;;;;;;;;5067770;28;20025;-57
2021/09/26 00:28:44;;;;;;;11.20;7.00;;;;;;;;;;5067561;28;20044;-59
2021/09/26 00:31:10;;;;;;;11.50;6.85;;;;;;;;;;5074576;28;20130;-58
2021/09/26 00:33:36;;;;;;;11.07;6.93;;;;;;;;;;5069099;28;20404;-58
2021/09/26 00:36:02;;;;;;;12.02;7.68;;;;;;;;;;5068805;28;20032;-58
2021/09/26 00:38:28;;;;;;;11.23;6.82;;;;;;;;;;5070470;28;20036;-58
2021/09/26 00:40:54;;;;;;;11.07;6.80;;;;;;;;;;5067167;28;20120;-59
2021/09/26 00:43:20;;;;;;;12.48;7.07;;;;;;;;;;5066781;28;20134;-59
2021/09/26 00:45:49;;;;;;;11.85;6.95;;;;;;;;;;5066698;28;20056;-59
2021/09/26 00:48:15;;;;;;;15.30;7.63;;;;;;;;;;5069553;28;20039;-59
2021/09/26 00:50:41;;;;;;;12.15;6.40;;;;;;;;;;5071076;28;20033;-59
2021/09/26 00:53:07;;;;;;;13.93;7.95;;;;;;;;;;5070879;28;20043;-57
2021/09/26 00:55:34;;;;;;;11.18;6.38;;;;;;;;;;5071116;28;20032;-59
2021/09/26 00:58:00;;;;;;;11.20;6.28;;;;;;;;;;5067596;28;20032;-59
2021/09/26 01:00:26;;;;;;;9.95;6.13;;;;;;;;;;5068028;28;20040;-59
2021/09/26 01:02:52;;;;;;;12.75;6.78;;;;;;;;;;5068758;28;20103;-59
2021/09/26 01:05:19;;;;;;;11.70;6.13;;;;;;;;;;5067110;28;20024;-58
2021/09/26 01:08:18;;;;;;;10.18;5.70;;;;;;;;;;5064347;28;20551;-59
2021/09/26 01:10:51;;;;;;;8.13;4.85;;;;;;;;;;5043197;28;20506;-59
2021/09/26 01:13:17;;;;;;;;;;;;;;;;;;5070452;28;20027;-59
2021/09/26 01:15:56;;;;;;;7.63;4.50;;;;;;;;;;5067908;28;19987;-58
2021/09/26 01:18:28;;;;;;;4.95;3.60;;;;;;;;;;5069454;28;20633;-59
2021/09/26 01:21:00;;;;;;;6.43;4.15;;;;;;;;;;5071150;28;20506;-59
2021/09/26 01:23:44;;;;;;;6.05;4.32;;;;;;;;;;5064170;28;20587;-59
2021/09/26 01:26:25;;;;;;;7.55;4.78;;;;;;;;;;5068933;28;20517;-59
2021/09/26 01:29:05;;;;;;;5.88;3.95;;;;;;;;;;5067054;28;20024;-59
2021/09/26 01:32:00;;;;;;;10.20;5.53;;;;;;;;;;5071335;28;20056;-58
2021/09/26 01:34:47;;;;;;;8.20;5.00;;;;;;;;;;5060335;28;20048;-57
2021/09/26 01:37:31;;;;;;;10.23;6.05;;;;;;;;;;5069959;28;20029;-60
2021/09/26 01:40:01;;;;;;;8.38;4.72;;;;;;;;;;5072282;28;20143;-56
2021/09/26 01:42:29;;;;;;;7.72;5.00;;;;;;;;;;5073457;28;20028;-59
2021/09/26 01:45:03;;;;;;;10.35;5.82;;;;;;;;;;5071675;28;20081;-58
2021/09/26 01:47:35;;;;;;;8.90;5.43;;;;;;;;;;5072283;28;20039;-59
2021/09/26 01:50:02;;;;;;;9.25;5.63;;;;;;;;;;5071032;28;20164;-59
2021/09/26 01:52:31;;;;;;;8.73;5.43;;;;;;;;;;5071482;28;20038;-59
2021/09/26 01:54:57;;;;;;;8.35;5.68;;;;;;;;;;5071904;28;20032;-59
2021/09/26 01:57:24;;;;;;;10.00;5.72;;;;;;;;;;5074087;28;20067;-57
2021/09/26 01:59:51;;;;;;;9.23;4.93;;;;;;;;;;5071066;28;20021;-58
2021/09/26 02:02:19;;;;;;;9.88;6.10;;;;;;;;;;5073796;28;20086;-59
2021/09/26 02:04:46;;;;;;;7.72;4.85;;;;;;;;;;5074539;28;20052;-57
2021/09/26 02:07:12;;;;;;;6.40;4.75;;;;;;;;;;5073961;28;20036;-58
2021/09/26 02:09:38;;;;;;;6.35;4.70;;;;;;;;;;5068751;28;20111;-59
2021/09/26 02:12:04;;;;;;;10.52;5.20;;;;;;;;;;5069438;28;20099;-59
2021/09/26 02:14:32;;;;;;;7.88;5.18;;;;;;;;;;5074107;28;20033;-60
2021/09/26 02:16:58;;;;;;;8.63;5.13;;;;;;;;;;5073865;28;20104;-60
2021/09/26 02:19:24;;;;;;;6.78;4.20;;;;;;;;;;5071219;28;20020;-58
2021/09/26 02:21:51;;;;;;;6.18;4.32;;;;;;;;;;5069634;28;20123;-58
2021/09/26 02:24:17;;;;;;;8.80;5.50;;;;;;;;;;5061024;28;20104;-59
2021/09/26 02:26:43;;;;;;;8.90;5.50;;;;;;;;;;5073945;28;20031;-59
2021/09/26 02:29:09;;;;;;;7.55;5.22;;;;;;;;;;5072027;28;20024;-58
2021/09/26 02:31:36;;;;;;;9.07;6.10;;;;;;;;;;5075333;28;20125;-58
2021/09/26 02:34:02;;;;;;;9.27;5.70;;;;;;;;;;5067975;28;20440;-59
2021/09/26 02:36:29;;;;;;;10.95;6.32;;;;;;;;;;5068141;28;20032;-59
2021/09/26 02:38:55;;;;;;;9.38;5.60;;;;;;;;;;5063107;28;20143;-58
2021/09/26 02:41:32;;;;;;;9.90;5.80;;;;;;;;;;5067974;28;20056;-58
2021/09/26 02:44:01;;;;;;;8.32;5.63;;;;;;;;;;5068927;28;20021;-59
2021/09/26 02:46:31;;;;;;;8.00;5.40;;;;;;;;;;5072626;28;20035;-59
2021/09/26 02:48:58;;;;;;;7.05;5.00;;;;;;;;;;5069727;28;20047;-59
2021/09/26 02:51:24;;;;;;;7.90;5.00;;;;;;;;;;5067237;28;20032;-59
2021/09/26 02:53:51;;;;;;;8.93;5.53;;;;;;;;;;5072123;28;20024;-58
2021/09/26 02:56:17;;;;;;;9.52;4.97;;;;;;;;;;5068549;28;20376;-58
2021/09/26 02:58:43;;;;;;;13.50;5.82;;;;;;;;;;5065068;28;20445;-60
2021/09/26 03:01:09;;;;;;;7.70;5.45;;;;;;;;;;5067008;28;20036;-60
2021/09/26 03:03:36;;;;;;;6.85;4.70;;;;;;;;;;5069246;28;20028;-59
2021/09/26 03:06:02;;;;;;;8.80;5.35;;;;;;;;;;5072631;28;20029;-58
2021/09/26 03:08:28;;;;;;;8.52;5.47;;;;;;;;;;5069673;28;20082;-60
2021/09/26 03:10:56;;;;;;;8.00;5.32;;;;;;;;;;5073013;28;20024;-59
2021/09/26 03:13:22;;;;;;;9.10;5.65;;;;;;;;;;5067471;28;20063;-59
2021/09/26 03:15:48;;;;;;;10.45;6.30;;;;;;;;;;5072735;28;20033;-60
2021/09/26 03:18:14;;;;;;;8.18;5.30;;;;;;;;;;5068552;28;20045;-59
2021/09/26 03:20:40;;;;;;;9.43;5.72;;;;;;;;;;5071965;28;20694;-58
2021/09/26 03:23:06;;;;;;;7.95;5.18;;;;;;;;;;5071070;28;20720;-58
2021/09/26 03:25:32;;;;;;;9.27;5.80;;;;;;;;;;5072251;28;20095;-60
2021/09/26 03:27:58;;;;;;;8.00;5.05;;;;;;;;;;5067970;28;20119;-58
2021/09/26 03:30:24;;;;;;;9.30;5.63;;;;;;;;;;5067259;28;20102;-58
2021/09/26 03:32:51;;;;;;;8.95;5.38;;;;;;;;;;5072860;28;20027;-60
2021/09/26 03:35:17;;;;;;;11.43;6.28;;;;;;;;;;5061404;28;20039;-58
2021/09/26 03:37:43;;;;;;;8.73;5.95;;;;;;;;;;5070493;28;20028;-59
2021/09/26 03:40:10;;;;;;;8.52;5.70;;;;;;;;;;5067077;28;20037;-59
2021/09/26 03:42:36;;;;;;;9.73;6.40;;;;;;;;;;5068856;28;20016;-58
2021/09/26 03:45:02;;;;;;;9.55;6.20;;;;;;;;;;5064997;28;20108;-60
2021/09/26 03:47:29;;;;;;;10.60;6.00;;;;;;;;;;5069803;28;20557;-60
2021/09/26 03:49:55;;;;;;;9.63;5.25;;;;;;;;;;5068879;28;20032;-59
2021/09/26 03:52:21;;;;;;;8.02;5.18;;;;;;;;;;5068959;28;20495;-59
2021/09/26 03:54:50;;;;;;;8.32;4.85;;;;;;;;;;5068513;28;20032;-58
2021/09/26 03:57:16;;;;;;;7.95;5.03;;;;;;;;;;5067263;28;20048;-58
2021/09/26 03:59:42;;;;;;;8.75;5.45;;;;;;;;;;5069462;28;20032;-59
2021/09/26 04:02:09;;;;;;;8.30;5.50;;;;;;;;;;5067536;28;20028;-59
2021/09/26 04:04:35;;;;;;;7.88;5.15;;;;;;;;;;5068321;28;20028;-60
2021/09/26 04:07:01;;;;;;;10.75;6.15;;;;;;;;;;5072237;28;20522;-59
2021/09/26 04:09:27;;;;;;;10.30;6.20;;;;;;;;;;5063431;28;20016;-58
2021/09/26 04:11:53;;;;;;;9.18;6.50;;;;;;;;;;5069865;28;20032;-59
2021/09/26 04:14:19;;;;;;;10.73;6.22;;;;;;;;;;5066797;28;20064;-60
2021/09/26 04:16:45;;;;;;;10.27;6.65;;;;;;;;;;5067479;28;20405;-60
2021/09/26 04:19:11;;;;;;;9.10;5.53;;;;;;;;;;5070383;28;20115;-60
2021/09/26 04:21:37;;;;;;;9.25;6.18;;;;;;;;;;5070098;28;20043;-60
2021/09/26 04:24:03;;;;;;;7.88;5.78;;;;;;;;;;5068489;28;20425;-59
2021/09/26 04:26:29;;;;;;;8.70;5.90;;;;;;;;;;5071458;28;20380;-58
2021/09/26 04:28:55;;;;;;;10.25;6.13;;;;;;;;;;5067443;28;20071;-59
2021/09/26 04:31:21;;;;;;;11.18;6.30;;;;;;;;;;5074192;28;20040;-59
2021/09/26 04:33:47;;;;;;;12.45;6.22;;;;;;;;;;5069408;28;20036;-59
2021/09/26 04:36:13;;;;;;;10.23;6.38;;;;;;;;;;5071468;28;20032;-60
2021/09/26 04:38:39;;;;;;;12.57;6.47;;;;;;;;;;5062682;28;20561;-60
2021/09/26 04:41:05;;;;;;;12.25;6.57;;;;;;;;;;5069357;28;20037;-59
2021/09/26 04:43:31;;;;;;;12.52;6.57;;;;;;;;;;5069022;28;20025;-60
2021/09/26 04:45:57;;;;;;;14.38;6.78;;;;;;;;;;5071436;28;20492;-60
2021/09/26 04:48:23;;;;;;;10.00;6.65;;;;;;;;;;5069019;28;20032;-60
2021/09/26 04:50:49;;;;;;;11.20;6.72;;;;;;;;;;5059260;28;20048;-59
2021/09/26 04:53:15;;;;;;;10.35;6.75;;;;;;;;;;5069188;28;20094;-58
2021/09/26 04:55:41;;;;;;;13.23;6.97;;;;;;;;;;5068915;28;20127;-60
2021/09/26 04:58:07;;;;;;;13.25;7.15;;;;;;;;;;5070401;28;20411;-59
2021/09/26 05:00:33;;;;;;;10.43;6.13;;;;;;;;;;5069342;28;20036;-59
2021/09/26 05:02:59;;;;;;;11.82;6.75;;;;;;;;;;5070236;28;20043;-60
2021/09/26 05:05:25;;;;;;;11.80;6.72;;;;;;;;;;5062470;28;20017;-60
2021/09/26 05:07:51;;;;;;;10.35;6.35;;;;;;;;;;5066810;28;20810;-59
2021/09/26 05:10:17;;;;;;;11.80;6.90;;;;;;;;;;5073134;28;20103;-60
2021/09/26 05:12:43;;;;;;;12.02;7.00;;;;;;;;;;5072764;28;20111;-60
2021/09/26 05:15:10;;;;;;;11.27;7.20;;;;;;;;;;5064530;28;20100;-59
2021/09/26 05:17:36;;;;;;;9.77;6.78;;;;;;;;;;5070347;28;20106;-60
2021/09/26 05:20:03;;;;;;;12.10;7.38;;;;;;;;;;5074808;28;20064;-60
2021/09/26 05:22:29;;;;;;;11.52;7.22;;;;;;;;;;5071581;28;20028;-58
2021/09/26 05:24:55;;;;;;;14.95;7.78;;;;;;;;;;5069593;28;20107;-60
2021/09/26 05:27:21;;;;;;;13.63;7.45;;;;;;;;;;5070231;28;20022;-58
2021/09/26 05:29:47;;;;;;;12.55;7.22;;;;;;;;;;5073258;28;20089;-60
2021/09/26 05:32:14;;;;;;;15.40;7.55;;;;;;;;;;5075599;28;20093;-60
2021/09/26 05:34:40;;;;;;;13.15;7.68;;;;;;;;;;5067103;28;20480;-59
2021/09/26 05:37:07;;;;;;;14.45;7.03;;;;;;;;;;5070807;28;20024;-59
2021/09/26 05:39:33;;;;;;;13.25;7.18;;;;;;;;;;5073933;28;20115;-59
2021/09/26 05:42:03;;;;;;;13.80;6.97;;;;;;;;;;5074738;28;20020;-59
2021/09/26 05:44:30;;;;;;;12.38;7.38;;;;;;;;;;5063282;28;20024;-59
2021/09/26 05:46:56;;;;;;;13.63;7.25;;;;;;;;;;5073564;28;20032;-59
2021/09/26 05:49:21;;;;;;;12.13;7.10;;;;;;;;;;5071550;28;20049;-59
2021/09/26 05:51:47;;;;;;;11.60;7.07;;;;;;;;;;5069836;28;20542;-59
2021/09/26 05:54:13;;;;;;;13.30;7.47;;;;;;;;;;5073447;28;20496;-60
2021/09/26 05:56:39;;;;;;;11.00;6.68;;;;;;;;;;5073438;28;20027;-60
2021/09/26 05:59:05;;;;;;;13.18;7.75;;;;;;;;;;5070969;28;20037;-58
2021/09/26 06:01:31;;;;;;;14.82;7.70;;;;;;;;;;5064378;28;20123;-59
2021/09/26 06:03:57;;;;;;;12.13;7.13;;;;;;;;;;5073239;28;20074;-60
2021/09/26 06:06:23;;;;;;;14.73;7.47;;;;;;;;;;5072938;28;20044;-59
2021/09/26 06:08:49;;;;;;;13.63;7.85;;;;;;;;;;5067737;28;20532;-58
2021/09/26 06:11:15;;;;;;;14.20;8.18;;;;;;;;;;5072382;28;20033;-60
2021/09/26 06:13:41;;;;;;;14.73;7.57;;;;;;;;;;5072283;28;20030;-58
2021/09/26 06:16:07;;;;;;;12.68;7.38;;;;;;;;;;5071306;28;20452;-60
2021/09/26 06:18:33;;;;;;;11.90;7.07;;;;;;;;;;5069564;28;20075;-59
2021/09/26 06:20:59;;;;;;;13.35;6.57;;;;;;;;;;5075121;28;20038;-60
2021/09/26 06:23:25;;;;;;;11.73;6.95;;;;;;;;;;5071976;28;20153;-59
2021/09/26 06:25:51;;;;;;;12.07;7.30;;;;;;;;;;5073194;28;20032;-60
2021/09/26 06:28:17;;;;;;;14.50;7.05;;;;;;;;;;5067368;28;20029;-59
2021/09/26 06:30:43;;;;;;;11.63;6.88;;;;;;;;;;5072964;28;20063;-59
2021/09/26 06:33:09;;;;;;;11.88;7.85;;;;;;;;;;5073566;28;20460;-60
2021/09/26 06:35:35;;;;;;;11.57;6.78;;;;;;;;;;5072148;28;20059;-60
2021/09/26 06:38:01;;;;;;;13.05;6.30;;;;;;;;;;5072913;28;20515;-60
2021/09/26 06:40:27;;;;;;;10.05;6.60;;;;;;;;;;5073153;28;20158;-58
2021/09/26 06:42:53;;;;;;;11.93;7.07;;;;;;;;;;5069709;28;20039;-59
2021/09/26 06:45:19;;;;;;;10.73;6.45;;;;;;;;;;5066183;28;20020;-60
2021/09/26 06:47:45;;;;;;;12.40;7.32;;;;;;;;;;5067862;28;20048;-58
2021/09/26 06:50:11;;;;;;;13.20;7.63;;;;;;;;;;5072141;28;20453;-60
2021/09/26 06:52:37;;;;;;;11.13;6.88;;;;;;;;;;5073289;28;20060;-59
2021/09/26 06:55:05;;;;;;;12.35;7.05;;;;;;;;;;5073069;28;20101;-59
2021/09/26 06:57:31;;;;;;;11.75;7.07;;;;;;;;;;5073341;28;20043;-60
2021/09/26 06:59:57;;;;;;;10.98;6.75;;;;;;;;;;5071465;28;20037;-60
2021/09/26 07:02:23;;;;;;;11.90;6.90;;;;;;;;;;5073006;28;20033;-60
2021/09/26 07:04:50;;;;;;;11.00;6.75;;;;;;;;;;5068977;28;20035;-59
2021/09/26 07:07:16;;;;;;;10.63;6.07;;;;;;;;;;5071984;28;20036;-59
2021/09/26 07:09:43;;;;;;;14.00;6.05;;;;;;;;;;5068049;28;20065;-60
2021/09/26 07:12:09;;;;;;;12.48;6.18;;;;;;;;;;5071358;28;20419;-60
2021/09/26 07:14:35;;;;;;;9.93;6.55;;;;;;;;;;5069956;28;20033;-60
2021/09/26 07:17:01;;;;;;;9.48;5.53;;;;;;;;;;5069711;28;20020;-60
2021/09/26 07:19:27;;;;;;;7.40;4.93;;;;;;;;;;5071732;28;20027;-58
2021/09/26 07:21:53;;;;;;;7.38;5.13;;;;;;;;;;5070064;28;20040;-59
2021/09/26 07:24:19;;;;;;;9.98;5.25;;;;;;;;;;5071398;28;20145;-60
2021/09/26 07:26:45;;;;;;;7.25;5.13;;;;;;;;;;5072170;28;20033;-60
2021/09/26 07:29:11;;;;;;;8.75;5.30;;;;;;;;;;5072299;28;20107;-60
2021/09/26 07:31:37;;;;;;;6.63;4.60;;;;;;;;;;5078878;28;20031;-58
2021/09/26 07:34:04;;;;;;;8.30;4.85;;;;;;;;;;5071429;28;20391;-60
2021/09/26 07:36:30;;;;;;;8.20;4.68;;;;;;;;;;5067583;28;20032;-60
2021/09/26 07:38:56;;;;;;;7.55;4.82;;;;;;;;;;5065682;28;20515;-60
2021/09/26 07:41:22;;;;;;;6.55;4.47;;;;;;;;;;5068645;28;20461;-60
2021/09/26 07:43:49;;;;;;;8.43;4.10;;;;;;;;;;5071500;28;20055;-59
2021/09/26 07:46:15;;;;;;;7.03;4.28;;;;;;;;;;5066356;28;20066;-60
2021/09/26 07:48:41;;;;;;;8.18;3.70;;;;;;;;;;5070781;28;20028;-58
2021/09/26 07:51:07;;;;;;;7.18;3.97;;;;;;;;;;5069031;28;20538;-61
2021/09/26 07:53:34;;;;;;;7.35;4.22;;;;;;;;;;5071226;28;20028;-60
2021/09/26 07:56:00;;;;;;;6.43;4.28;;;;;;;;;;5071567;28;20476;-61
2021/09/26 07:58:27;;;;;;;5.78;3.83;;;;;;;;;;5070218;28;20114;-60
2021/09/26 08:00:53;;;;;;;5.68;3.60;;;;;;;;;;5070619;28;20167;-59
2021/09/26 08:03:19;;;;;;;6.80;4.20;;;;;;;;;;5068129;28;20025;-59
2021/09/26 08:05:45;;;;;;;7.28;3.70;;;;;;;;;;5065246;28;20028;-60
2021/09/26 08:08:11;;;;;;;4.90;3.67;;;;;;;;;;5070783;28;20024;-60
2021/09/26 08:10:38;;;;;;;4.97;3.13;;;;;;;;;;5069631;28;20129;-59
2021/09/26 08:13:04;;;;;;;5.93;3.45;;;;;;;;;;5070633;28;20028;-61
2021/09/26 08:15:30;;;;;;;5.82;3.92;;;;;;;;;;5069905;28;20032;-58
2021/09/26 08:17:57;;;;;;;5.90;3.50;;;;;;;;;;5065844;28;20043;-59
2021/09/26 08:20:23;;;;;;;4.82;3.17;;;;;;;;;;5069717;28;20407;-60
2021/09/26 08:22:52;;;;;;;6.20;3.67;;;;;;;;;;5068531;28;20040;-60
2021/09/26 08:25:18;;;;;;;4.72;3.10;;;;;;;;;;5071434;28;20025;-60
2021/09/26 08:27:44;;;;;;;3.97;3.05;;;;;;;;;;5069397;28;20025;-59
2021/09/26 08:30:10;;;;;;;4.35;2.92;;;;;;;;;;5070131;28;20367;-60
2021/09/26 08:32:37;;;;;;;5.60;3.17;;;;;;;;;;5071420;28;20036;-59
2021/09/26 08:35:03;;;;;;;5.18;3.15;;;;;;;;;;5070234;28;20028;-60
2021/09/26 08:37:29;;;;;;;4.93;3.22;;;;;;;;;;5065586;28;20124;-60
2021/09/26 08:39:55;;;;;;;5.35;3.42;;;;;;;;;;5068935;28;20461;-60
2021/09/26 08:42:22;;;;;;;4.25;3.05;;;;;;;;;;5069489;28;20033;-60
2021/09/26 08:44:49;;;;;;;4.20;3.03;;;;;;;;;;5067014;28;20103;-60
2021/09/26 08:47:16;;;;;;;4.45;2.83;;;;;;;;;;5066294;28;20155;-60
2021/09/26 08:49:42;;;;;;;4.55;2.30;;;;;;;;;;5067779;28;20116;-60
2021/09/26 08:52:08;;;;;;;4.90;3.50;;;;;;;;;;5071612;28;20346;-60
2021/09/26 08:54:34;;;;;;;6.22;3.10;;;;;;;;;;5067232;28;20551;-58
2021/09/26 08:57:00;;;;;;;6.55;2.72;;;;;;;;;;5071323;28;20111;-58
2021/09/26 08:59:26;;;;;;;6.40;3.55;;;;;;;;;;5070729;28;20021;-59
2021/09/26 09:01:52;;;;;;;6.65;3.15;;;;;;;;;;5068587;28;20036;-60
2021/09/26 09:04:32;;;;;;;5.18;2.95;;;;;;;;;;5063781;28;20518;-60
2021/09/26 09:07:02;;;;;;;4.18;2.38;;;;;;;;;;5065777;28;20071;-60
2021/09/26 09:09:28;;;;;;;4.40;2.50;;;;;;;;;;5064101;28;20031;-60
2021/09/26 09:12:01;;;;;;;3.60;2.67;;;;;;;;;;5066434;28;20025;-60
2021/09/26 09:14:27;;;;;;;4.72;3.50;;;;;;;;;;5061632;28;20369;-59
2021/09/26 09:16:54;;;;;;;4.68;3.15;;;;;;;;;;5066248;28;20113;-60
2021/09/26 09:19:21;;;;;;;3.33;2.03;;;;;;;;;;5066677;28;20041;-61
2021/09/26 09:22:02;;;;;;;4.03;2.83;;;;;;;;;;5069777;28;20048;-61
2021/09/26 09:24:28;;;;;;;5.53;2.80;;;;;;;;;;5067648;28;20025;-60
2021/09/26 09:26:56;;;;;;;6.03;3.47;;;;;;;;;;5069092;28;20354;-60
2021/09/26 09:29:23;;;;;;;3.22;2.63;;;;;;;;;;5068913;28;20100;-57
2021/09/26 09:31:53;;;;;;;5.38;2.60;;;;;;;;;;5074060;28;20113;-58
2021/09/26 09:34:33;;;;;;;3.90;2.50;;;;;;;;;;5072685;28;20108;-59
2021/09/26 09:37:09;;;;;;;4.85;2.80;;;;;;;;;;5066811;28;20123;-59
2021/09/26 09:39:35;;;;;;;6.03;2.78;;;;;;;;;;5070585;28;20040;-58
2021/09/26 09:42:15;;;;;;;4.05;2.38;;;;;;;;;;5070863;28;20113;-59
2021/09/26 09:44:44;;;;;;;5.32;2.40;;;;;;;;;;5071056;28;20029;-59
2021/09/26 09:47:10;;;;;;;4.38;2.80;;;;;;;;;;5067095;28;21555;-59
2021/09/26 09:49:36;;;;;;;3.60;2.40;;;;;;;;;;5070726;28;20360;-59
2021/09/26 09:52:04;;;;;;;3.70;2.42;;;;;;;;;;5070889;28;20388;-58
2021/09/26 09:54:34;;;;;;;4.20;2.42;;;;;;;;;;5064015;28;20024;-60
2021/09/26 09:57:13;;;;;;;3.20;2.40;;;;;;;;;;5074166;28;20021;-59
2021/09/26 09:59:39;;;;;;;3.97;2.67;;;;;;;;;;5069281;28;20511;-60
2021/09/26 10:02:06;;;;;;;6.40;2.55;;;;;;;;;;5071182;28;20048;-58
2021/09/26 10:04:37;;;;;;;3.85;2.58;;;;;;;;;;5070580;28;20069;-59
2021/09/26 10:07:16;;;;;;;3.38;2.00;;;;;;;;;;5073151;28;20048;-59
2021/09/26 10:09:43;;;;;;;5.88;3.03;;;;;;;;;;5072161;28;20056;-59
2021/09/26 10:12:18;;;;;;;4.05;2.35;;;;;;;;;;5068846;28;20484;-59
2021/09/26 10:14:44;;;;;;;4.07;2.17;;;;;;;;;;5070648;28;20029;-59
2021/09/26 10:17:10;;;;;;;3.67;2.42;;;;;;;;;;5073933;28;20182;-60
2021/09/26 10:19:37;;;;;;;3.88;2.20;;;;;;;;;;5069798;28;20056;-59
2021/09/26 10:22:04;;;;;;;3.78;2.40;;;;;;;;;;5066329;28;20088;-59
2021/09/26 10:24:31;;;;;;;4.10;2.20;;;;;;;;;;5066023;28;20017;-59
2021/09/26 10:26:58;;;;;;;3.28;1.92;;;;;;;;;;5066983;28;20047;-60
2021/09/26 10:29:27;;;;;;;5.22;1.65;;;;;;;;;;5058370;28;20120;-58
2021/09/26 10:31:53;;;;;;;3.28;1.90;;;;;;;;;;5068606;28;20025;-59
2021/09/26 10:34:21;;;;;;;3.80;2.03;;;;;;;;;;5072281;28;20028;-59
2021/09/26 10:36:47;;;;;;;2.45;1.80;;;;;;;;;;5070334;28;20135;-60
2021/09/26 10:39:14;;;;;;;2.20;1.65;;;;;;;;;;5067177;28;20443;-59
2021/09/26 10:41:59;;;;;;;3.35;1.52;;;;;;;;;;5060190;28;20028;-59
2021/09/26 10:44:26;;;;;;;2.67;1.33;;;;;;;;;;5070478;28;20096;-60
2021/09/26 10:47:12;;;;;;;2.80;1.98;;;;;;;;;;5062763;28;20392;-59
2021/09/26 10:49:39;;;;;;;3.25;1.83;;;;;;;;;;5067471;28;20029;-59
2021/09/26 10:52:21;;;;;;;3.08;1.75;;;;;;;;;;5073072;28;20035;-59
2021/09/26 10:54:47;;;;;;;2.00;1.60;;;;;;;;;;5072142;28;20029;-59
2021/09/26 10:57:13;;;;;;;5.13;1.23;;;;;;;;;;5073409;28;20024;-59
2021/09/26 10:59:49;;;;;;;3.72;1.80;;;;;;;;;;5072840;28;20473;-59
2021/09/26 11:02:26;;;;;;;2.70;1.65;;;;;;;;;;5073407;28;20220;-59
2021/09/26 11:04:54;;;;;;;2.97;1.60;;;;;;;;;;5074175;28;20024;-58
2021/09/26 11:07:21;;;;;;;2.22;1.30;;;;;;;;;;5072883;28;20536;-59
2021/09/26 11:09:54;;;;;;;2.60;1.60;;;;;;;;;;5072489;28;20103;-58
2021/09/26 11:12:38;;;;;;;3.10;1.80;;;;;;;;;;5073076;28;20029;-59
2021/09/26 11:15:25;;;;;;;1.75;1.48;;;;;;;;;;5065322;28;20032;-59
2021/09/26 11:17:52;;;;;;;2.22;1.50;;;;;;;;;;5072407;28;20145;-58
2021/09/26 11:20:30;;;;;;;1.48;1.25;;;;;;;;;;5072851;28;20032;-57
2021/09/26 11:23:06;;;;;;;3.95;1.65;;;;;;;;;;5071201;28;20024;-57
2021/09/26 11:25:50;;;;;;;2.40;1.60;;;;;;;;;;5068685;28;20103;-57
2021/09/26 11:28:30;;;;;;;2.25;1.30;;;;;;;;;;5069782;28;20103;-58
2021/09/26 11:30:57;;;;;;;1.90;1.40;;;;;;;;;;5068304;28;20039;-60
2021/09/26 11:33:23;;;;;;;2.47;1.35;;;;;;;;;;5068797;28;20104;-59
2021/09/26 11:35:49;;;;;;;2.03;1.42;;;;;;;;;;5072719;28;20035;-56
2021/09/26 11:38:19;;;;;;;3.05;1.60;;;;;;;;;;5071846;28;20051;-58
2021/09/26 11:40:51;;;;;;;2.83;1.73;;;;;;;;;;5071715;28;20054;-60
2021/09/26 11:43:18;;;;;;;2.75;1.65;;;;;;;;;;5066655;28;20032;-58
2021/09/26 11:45:45;;;;;;;3.08;1.83;;;;;;;;;;5066426;28;20024;-57
2021/09/26 11:48:11;;;;;;;1.92;1.40;;;;;;;;;;5066387;28;20178;-57
2021/09/26 11:50:39;;;;;;;2.70;1.55;;;;;;;;;;5070350;28;20476;-58
2021/09/26 11:53:05;;;;;;;1.98;1.48;;;;;;;;;;5067686;28;20029;-57
2021/09/26 11:55:31;;;;;;;2.70;1.55;;;;;;;;;;5071108;28;20437;-59
2021/09/26 11:57:59;;;;;;;5.13;1.70;;;;;;;;;;5069219;28;20025;-59
2021/09/26 12:00:27;;;;;;;4.20;1.40;;;;;;;;;;5060936;28;20041;-61
2021/09/26 12:02:53;;;;;;;4.15;1.80;;;;;;;;;;5061346;28;20025;-61
2021/09/26 12:05:35;;;;;;;2.30;1.77;;;;;;;;;;5074917;28;20032;-61
2021/09/26 12:08:03;;;;;;;2.65;1.60;;;;;;;;;;5063977;28;20064;-60
2021/09/26 12:10:29;;;;;;;2.85;1.73;;;;;;;;;;5066824;28;20023;-60
2021/09/26 12:12:55;;;;;;;2.97;1.58;;;;;;;;;;5066340;28;20134;-60
2021/09/26 12:15:21;;;;;;;2.10;1.10;;;;;;;;;;5071526;28;20028;-60
2021/09/26 12:17:54;;;;;;;3.22;1.60;;;;;;;;;;5067835;28;20123;-59
2021/09/26 12:20:21;;;;;;;2.17;1.55;;;;;;;;;;5068553;28;20032;-60
2021/09/26 12:22:52;;;;;;;2.25;1.50;;;;;;;;;;5070423;28;20035;-59
2021/09/26 12:25:35;;;;;;;3.08;1.48;;;;;;;;;;5069859;28;20032;-60
2021/09/26 12:28:09;;;;;;;1.83;1.40;;;;;;;;;;5070325;28;20041;-60
2021/09/26 12:30:41;;;;;;;1.83;1.25;;;;;;;;;;5070128;28;20448;-60
2021/09/26 12:33:27;;;;;;;3.40;1.67;;;;;;;;;;5066679;28;20489;-59
2021/09/26 12:35:57;;;;;;;1.92;1.25;;;;;;;;;;5062838;28;20063;-59
2021/09/26 12:38:29;;;;;;;2.03;1.42;;;;;;;;;;5071138;28;20029;-59
2021/09/26 12:41:00;;;;;;;2.95;1.35;;;;;;;;;;5067457;28;20423;-60
2021/09/26 12:43:28;;;;;;;2.28;1.40;;;;;;;;;;5067787;28;20051;-60
2021/09/26 12:45:55;;;;;;;1.75;1.20;;;;;;;;;;5069526;28;20025;-60
2021/09/26 12:48:22;;;;;;;1.73;1.20;;;;;;;;;;5068096;28;20039;-60
2021/09/26 12:50:57;;;;;;;2.75;1.50;;;;;;;;;;5071397;28;20119;-60
2021/09/26 12:53:26;;;;;;;1.75;1.25;;;;;;;;;;5070277;28;20079;-55
2021/09/26 12:55:54;;;;;;;1.38;1.00;;;;;;;;;;5070241;28;20025;-59
2021/09/26 12:58:22;;;;;;;3.05;1.25;;;;;;;;;;5067636;28;20036;-55
2021/09/26 13:00:49;;;;;;;1.70;1.20;;;;;;;;;;5069396;28;20115;-54
2021/09/26 13:03:20;;;;;;;3.17;1.58;;;;;;;;;;5070265;28;20115;-56
2021/09/26 13:05:57;;;;;;;3.78;1.30;;;;;;;;;;5068095;28;20032;-57
2021/09/26 13:08:32;;;;;;;1.63;1.40;;;;;;;;;;5070523;28;20100;-58
2021/09/26 13:11:11;;;;;;;2.35;1.30;;;;;;;;;;5064340;28;20037;-58
2021/09/26 13:13:41;;;;;;;1.80;1.25;;;;;;;;;;5069988;28;20024;-54
2021/09/26 13:16:28;;;;;;;1.88;1.20;;;;;;;;;;5061607;28;20060;-56
2021/09/26 13:18:54;;;;;;;2.13;1.75;;;;;;;;;;5069142;28;20127;-54
2021/09/26 13:21:23;;;;;;;2.58;1.40;;;;;;;;;;5064773;28;20032;-57
2021/09/26 13:23:59;;;;;;;2.13;1.30;;;;;;;;;;5068628;28;20029;-55
2021/09/26 13:26:25;;;;;;;4.82;1.85;;;;;;;;;;5069183;28;20030;-55
2021/09/26 13:29:27;;;;;;;2.25;1.50;;;;;;;;;;5060886;28;20028;-55
2021/09/26 13:31:55;;;;;;;2.97;1.73;;;;;;;;;;5031587;28;20025;-58
2021/09/26 13:34:32;;;;;;;3.92;2.10;;;;;;;;;;5066939;28;20132;-54
2021/09/26 13:37:06;;;;;;;2.42;1.67;;;;;;;;;;5070501;28;20032;-52
2021/09/26 13:39:44;;;;;;;2.45;1.45;;;;;;;;;;5072917;28;20032;-57
2021/09/26 13:42:23;;;;;;;4.03;1.60;;;;;;;;;;5071813;28;20039;-58
2021/09/26 13:44:50;;;;;;;2.25;1.48;;;;;;;;;;5072729;28;20768;-57
2021/09/26 13:47:19;;;;;;;2.65;1.38;;;;;;;;;;5073061;28;20024;-54
2021/09/26 13:49:46;;;;;;;1.50;0.98;;;;;;;;;;5074752;28;20484;-58
2021/09/26 13:52:12;;;;;;;3.95;1.73;;;;;;;;;;5074708;28;20020;-58
2021/09/26 13:54:38;;;;;;;1.75;1.15;;;;;;;;;;5074214;28;20032;-56
2021/09/26 13:57:04;;;;;;;2.65;1.90;;;;;;;;;;5075229;28;20094;-57
2021/09/26 13:59:30;;;;;;;1.80;1.30;;;;;;;;;;5074358;28;20569;-56
2021/09/26 14:01:56;;;;;;;1.98;1.10;;;;;;;;;;5073665;28;20103;-57
2021/09/26 14:04:22;;;;;;;1.73;1.30;;;;;;;;;;5074380;28;20024;-54
2021/09/26 14:06:48;;;;;;;2.22;1.00;;;;;;;;;;5069975;28;20028;-54
2021/09/26 14:09:14;;;;;;;2.40;1.23;;;;;;;;;;5073941;28;20025;-58
2021/09/26 14:11:40;;;;;;;2.33;1.50;;;;;;;;;;5063999;28;20432;-54
2021/09/26 14:14:06;;;;;;;2.33;1.42;;;;;;;;;;5072822;28;20025;-57
2021/09/26 14:16:33;;;;;;;1.88;1.23;;;;;;;;;;5066219;28;20029;-55
2021/09/26 14:18:59;;;;;;;2.42;1.23;;;;;;;;;;5072402;28;20201;-56
2021/09/26 14:21:25;;;;;;;2.08;1.40;;;;;;;;;;5066084;28;20353;-58
2021/09/26 14:23:52;;;;;;;2.85;1.27;;;;;;;;;;5070065;28;20033;-59
2021/09/26 14:26:18;;;;;;;1.75;1.10;;;;;;;;;;5069333;28;20071;-58
2021/09/26 14:28:44;;;;;;;1.83;1.20;;;;;;;;;;5068500;28;20025;-57
2021/09/26 14:31:11;;;;;;;2.00;1.30;;;;;;;;;;5068029;28;20028;-57
2021/09/26 14:33:38;;;;;;;1.42;1.00;;;;;;;;;;5074964;28;20036;-52
2021/09/26 14:36:04;;;;;;;1.45;0.85;;;;;;;;;;5073541;28;20191;-55
2021/09/26 14:38:30;;;;;;;2.50;1.40;;;;;;;;;;5065055;28;20515;-53
2021/09/26 14:40:56;;;;;;;2.28;1.30;;;;;;;;;;5067866;28;20369;-55
2021/09/26 14:43:22;;;;;;;1.95;1.40;;;;;;;;;;5071391;28;20103;-58
2021/09/26 14:45:48;;;;;;;1.10;0.80;;;;;;;;;;5068183;28;20040;-54